createdAt,value
2018-02-15T00:00:39.077Z,70.60
2018-02-15T00:03:07.484Z,70.50
2018-02-15T00:05:35.904Z,70.20
2018-02-15T00:08:04.739Z,70.50
2018-02-15T00:10:33.154Z,70.20
2018-02-15T00:13:01.583Z,70.30
2018-02-15T00:15:29.996Z,70.10
2018-02-15T00:17:59.920Z,69.70
2018-02-15T00:20:29.042Z,70.00
2018-02-15T00:22:58.764Z,69.40
2018-02-15T00:25:28.533Z,69.40
2018-02-15T00:27:57.621Z,69.40
2018-02-15T00:30:26.039Z,69.10
2018-02-15T00:32:55.217Z,69.20
2018-02-15T00:35:23.632Z,69.20
2018-02-15T00:37:52.040Z,68.70
2018-02-15T00:40:20.446Z,68.80
2018-02-15T00:42:48.861Z,68.80
2018-02-15T00:45:17.266Z,68.50
2018-02-15T00:47:45.673Z,68.50
2018-02-15T00:50:14.079Z,68.30
2018-02-15T00:52:43.241Z,68.30
2018-02-15T00:55:11.656Z,68.20
2018-02-15T00:57:40.824Z,68.40
2018-02-15T01:00:09.269Z,68.40
2018-02-15T01:02:37.684Z,67.10
2018-02-15T01:05:06.097Z,68.60
2018-02-15T01:07:34.526Z,69.30
2018-02-15T01:10:02.928Z,68.50
2018-02-15T01:12:32.111Z,68.50
2018-02-15T01:15:00.521Z,68.50
2018-02-15T01:17:28.939Z,68.90
2018-02-15T01:19:58.247Z,69.00
2018-02-15T01:22:26.689Z,69.00
2018-02-15T01:24:55.115Z,68.90
2018-02-15T01:27:23.536Z,68.80
2018-02-15T01:29:51.960Z,68.70
2018-02-15T01:32:20.360Z,68.90
2018-02-15T01:34:48.770Z,68.90
2018-02-15T01:37:17.445Z,69.10
2018-02-15T01:39:46.614Z,69.00
2018-02-15T01:42:15.047Z,69.00
2018-02-15T01:44:43.448Z,69.30
2018-02-15T01:47:11.859Z,69.10
2018-02-15T01:49:52.137Z,69.00
2018-02-15T01:52:20.563Z,69.00
2018-02-15T01:54:48.955Z,69.20
2018-02-15T01:57:17.363Z,69.40
2018-02-15T01:59:46.551Z,69.10
2018-02-15T02:02:15.727Z,68.60
2018-02-15T02:04:44.165Z,68.50
2018-02-15T02:07:12.564Z,68.50
2018-02-15T02:09:40.966Z,68.20
2018-02-15T02:12:09.384Z,68.00
2018-02-15T02:14:37.772Z,68.10
2018-02-15T02:17:06.164Z,67.70
2018-02-15T02:19:34.567Z,67.90
2018-02-15T02:22:02.996Z,67.30
2018-02-15T02:24:31.391Z,67.70
2018-02-15T02:26:59.787Z,67.10
2018-02-15T02:29:27.889Z,67.40
2018-02-15T02:31:57.123Z,67.00
2018-02-15T02:34:25.524Z,67.00
2018-02-15T02:36:53.911Z,66.30
2018-02-15T02:39:22.307Z,66.40
2018-02-15T02:41:50.717Z,66.20
2018-02-15T02:44:19.132Z,65.80
2018-02-15T02:46:47.533Z,65.10
2018-02-15T02:49:15.952Z,65.10
2018-02-15T02:51:44.390Z,64.50
2018-02-15T02:54:12.784Z,64.30
2018-02-15T02:56:41.970Z,64.10
2018-02-15T02:59:10.367Z,64.00
2018-02-15T03:01:39.575Z,63.90
2018-02-15T03:04:07.989Z,63.90
2018-02-15T03:06:36.430Z,64.50
2018-02-15T03:09:04.206Z,63.60
2018-02-15T03:11:32.597Z,63.40
2018-02-15T03:14:01.027Z,63.50
2018-02-15T03:16:30.216Z,63.80
2018-02-15T03:18:58.615Z,63.80
2018-02-15T03:21:27.770Z,63.70
2018-02-15T03:23:56.218Z,63.80
2018-02-15T03:26:24.626Z,63.50
2018-02-15T03:28:53.108Z,63.40
2018-02-15T03:31:21.517Z,63.10
2018-02-15T03:33:50.734Z,62.80
2018-02-15T03:36:19.152Z,62.70
2018-02-15T03:38:47.556Z,62.70
2018-02-15T03:41:15.957Z,62.60
2018-02-15T03:43:44.377Z,62.30
2018-02-15T03:46:12.772Z,62.00
2018-02-15T03:48:41.180Z,62.10
2018-02-15T03:51:10.347Z,61.90
2018-02-15T03:53:38.817Z,61.90
2018-02-15T03:56:07.223Z,61.70
2018-02-15T03:58:35.616Z,61.60
2018-02-15T04:01:04.813Z,61.30
2018-02-15T04:03:33.994Z,61.40
2018-02-15T04:06:03.166Z,61.30
2018-02-15T04:08:31.589Z,61.30
2018-02-15T04:10:59.998Z,61.10
2018-02-15T04:13:28.420Z,61.20
2018-02-15T04:15:56.837Z,61.30
2018-02-15T04:18:25.264Z,61.40
2018-02-15T04:20:53.691Z,61.40
2018-02-15T04:23:22.088Z,61.60
2018-02-15T04:25:50.491Z,61.60
2018-02-15T04:28:18.905Z,61.30
2018-02-15T04:30:48.078Z,61.20
2018-02-15T04:33:16.497Z,61.30
2018-02-15T04:35:44.908Z,61.20
2018-02-15T04:38:13.309Z,61.10
2018-02-15T04:40:41.703Z,60.70
2018-02-15T04:43:11.173Z,60.50
2018-02-15T04:45:39.839Z,60.50
2018-02-15T04:48:08.252Z,60.30
2018-02-15T04:50:36.639Z,60.40
2018-02-15T04:53:05.046Z,60.50
2018-02-15T04:55:33.449Z,60.50
2018-02-15T04:58:01.912Z,60.50
2018-02-15T05:00:30.321Z,60.60
2018-02-15T05:02:58.726Z,60.60
2018-02-15T05:05:27.128Z,60.60
2018-02-15T05:07:56.298Z,60.50
2018-02-15T05:10:24.709Z,60.50
2018-02-15T05:12:53.134Z,60.20
2018-02-15T05:15:21.522Z,59.90
2018-02-15T05:17:49.928Z,59.70
2018-02-15T05:20:19.102Z,59.40
2018-02-15T05:22:47.511Z,59.30
2018-02-15T05:25:16.690Z,58.40
2018-02-15T05:27:45.118Z,58.40
2018-02-15T05:30:13.503Z,58.30
2018-02-15T05:32:43.028Z,58.10
2018-02-15T05:35:12.204Z,57.70
2018-02-15T05:37:41.197Z,57.70
2018-02-15T05:40:10.303Z,57.60
2018-02-15T05:42:38.926Z,57.40
2018-02-15T05:45:08.164Z,56.90
2018-02-15T05:47:36.572Z,56.90
2018-02-15T05:50:04.664Z,57.20
2018-02-15T05:52:33.858Z,57.40
2018-02-15T05:55:03.035Z,56.80
2018-02-15T05:57:31.470Z,57.20
2018-02-15T05:59:59.905Z,57.20
2018-02-15T06:02:28.311Z,57.10
2018-02-15T06:04:56.777Z,57.00
2018-02-15T06:07:25.982Z,56.60
2018-02-15T06:09:55.198Z,57.00
2018-02-15T06:12:23.637Z,57.00
2018-02-15T06:14:52.068Z,57.30
2018-02-15T06:17:20.508Z,57.10
2018-02-15T06:19:49.742Z,57.50
2018-02-15T06:22:18.179Z,58.00
2018-02-15T06:24:47.381Z,57.20
2018-02-15T06:27:16.574Z,57.00
2018-02-15T06:29:45.783Z,57.30
2018-02-15T06:32:14.252Z,57.20
2018-02-15T06:34:43.454Z,57.00
2018-02-15T06:37:12.653Z,56.10
2018-02-15T06:39:41.869Z,56.00
2018-02-15T06:42:11.153Z,56.90
2018-02-15T06:44:40.388Z,55.40
2018-02-15T06:47:08.916Z,55.60
2018-02-15T06:49:38.101Z,56.30
2018-02-15T06:52:06.535Z,56.20
2018-02-15T06:54:34.980Z,55.60
2018-02-15T06:57:03.420Z,55.50
2018-02-15T06:59:31.856Z,55.70
2018-02-15T07:02:00.323Z,55.70
2018-02-15T07:04:28.757Z,55.30
2018-02-15T07:06:57.206Z,55.90
2018-02-15T07:09:25.655Z,56.60
2018-02-15T07:11:54.081Z,56.60
2018-02-15T07:14:22.559Z,57.50
2018-02-15T07:16:50.994Z,57.40
2018-02-15T07:19:19.425Z,58.50
2018-02-15T07:21:47.878Z,58.00
2018-02-15T07:24:16.310Z,57.80
2018-02-15T07:26:45.513Z,57.90
2018-02-15T07:29:14.723Z,57.80
2018-02-15T07:31:43.194Z,57.70
2018-02-15T07:34:12.116Z,57.70
2018-02-15T07:36:40.351Z,57.90
2018-02-15T07:39:10.484Z,57.90
2018-02-15T07:41:38.986Z,57.80
2018-02-15T07:44:07.431Z,58.30
2018-02-15T07:46:36.638Z,58.40
2018-02-15T07:49:04.884Z,58.50
2018-02-15T07:51:33.150Z,58.00
2018-02-15T07:54:01.396Z,59.40
2018-02-15T07:56:29.645Z,58.80
2018-02-15T07:58:57.923Z,58.50
2018-02-15T08:01:26.369Z,59.10
2018-02-15T08:03:55.566Z,58.20
2018-02-15T08:06:24.791Z,57.40
2018-02-15T08:08:53.231Z,57.40
2018-02-15T08:11:21.716Z,58.30
2018-02-15T08:13:50.314Z,58.60
2018-02-15T08:16:19.499Z,56.30
2018-02-15T08:18:48.705Z,57.60
2018-02-15T08:21:17.900Z,56.10
2018-02-15T08:23:47.107Z,55.30
2018-02-15T08:26:15.579Z,55.30
2018-02-15T08:28:44.811Z,56.70
2018-02-15T08:31:13.267Z,56.60
2018-02-15T08:33:42.705Z,56.40
2018-02-15T08:36:11.534Z,56.70
2018-02-15T08:38:40.780Z,57.10
2018-02-15T08:41:09.867Z,57.10
2018-02-15T08:43:38.300Z,57.20
2018-02-15T08:46:07.504Z,58.30
2018-02-15T08:48:36.748Z,58.00
2018-02-15T08:51:05.208Z,58.00
2018-02-15T08:53:33.645Z,58.40
2018-02-15T08:56:02.090Z,58.60
2018-02-15T08:58:30.543Z,58.20
2018-02-15T09:00:58.973Z,58.40
2018-02-15T09:03:27.428Z,58.80
2018-02-15T09:05:55.880Z,58.40
2018-02-15T09:08:24.304Z,58.50
2018-02-15T09:10:52.744Z,58.80
2018-02-15T09:13:21.178Z,58.90
2018-02-15T09:15:49.632Z,59.00
2018-02-15T09:18:18.054Z,59.00
2018-02-15T09:20:46.480Z,59.20
2018-02-15T09:23:14.943Z,59.20
2018-02-15T09:25:43.368Z,58.80
2018-02-15T09:28:12.750Z,58.60
2018-02-15T09:30:41.776Z,58.70
2018-02-15T09:33:11.794Z,58.70
2018-02-15T09:35:41.794Z,59.00
2018-02-15T09:38:10.229Z,59.00
2018-02-15T09:40:38.664Z,59.20
2018-02-15T09:43:07.855Z,59.40
2018-02-15T09:45:37.062Z,59.60
2018-02-15T09:48:05.496Z,59.50
2018-02-15T09:50:33.953Z,59.50
2018-02-15T09:53:02.394Z,59.70
2018-02-15T09:55:31.581Z,60.00
2018-02-15T09:58:00.800Z,60.20
2018-02-15T10:00:29.247Z,60.20
2018-02-15T10:02:57.702Z,60.40
2018-02-15T10:05:26.134Z,60.50
2018-02-15T10:07:54.579Z,60.40
2018-02-15T10:10:23.020Z,60.40
2018-02-15T10:12:51.449Z,60.30
2018-02-15T10:15:20.674Z,61.10
2018-02-15T10:17:49.109Z,60.90
2018-02-15T10:20:17.557Z,61.10
2018-02-15T10:22:46.021Z,61.30
2018-02-15T10:25:14.661Z,61.30
2018-02-15T10:27:43.882Z,61.60
2018-02-15T10:30:12.330Z,61.60
2018-02-15T10:32:42.712Z,62.10
2018-02-15T10:35:11.320Z,63.00
2018-02-15T10:37:40.715Z,63.00
2018-02-15T10:40:09.156Z,64.70
2018-02-15T10:42:38.604Z,65.10
2018-02-15T10:45:07.070Z,66.80
2018-02-15T10:47:35.509Z,68.30
2018-02-15T10:50:04.699Z,68.40
2018-02-15T10:52:34.817Z,68.50
2018-02-15T10:55:04.016Z,69.60
2018-02-15T10:57:33.055Z,70.00
2018-02-15T11:00:01.489Z,70.00
2018-02-15T11:02:29.920Z,70.80
2018-02-15T11:05:03.899Z,71.00
2018-02-15T11:07:32.338Z,71.80
2018-02-15T11:10:01.352Z,72.90
2018-02-15T11:12:29.804Z,72.70
2018-02-15T11:14:59.211Z,73.00
2018-02-15T11:17:28.417Z,72.60
2018-02-15T11:19:57.659Z,72.40
2018-02-15T11:22:26.085Z,72.40
2018-02-15T11:24:55.282Z,72.30
2018-02-15T11:27:24.498Z,74.60
2018-02-15T11:29:53.684Z,72.30
2018-02-15T11:32:22.889Z,72.70
2018-02-15T11:34:51.326Z,72.70
2018-02-15T11:37:19.780Z,73.80
2018-02-15T11:39:48.227Z,74.50
2018-02-15T11:42:17.421Z,75.00
2018-02-15T11:44:45.868Z,75.00
2018-02-15T11:47:14.325Z,74.40
2018-02-15T11:49:42.769Z,74.60
2018-02-15T11:52:11.652Z,74.90
2018-02-15T11:54:40.860Z,75.40
2018-02-15T11:57:09.683Z,75.40
2018-02-15T11:59:38.149Z,76.20
2018-02-15T12:02:06.585Z,76.90
2018-02-15T12:04:35.776Z,76.10
2018-02-15T12:07:05.003Z,75.80
2018-02-15T12:09:33.461Z,75.80
2018-02-15T12:12:02.709Z,76.70
2018-02-15T12:14:31.146Z,76.60
2018-02-15T12:17:00.354Z,77.00
2018-02-15T12:19:28.797Z,77.00
2018-02-15T12:21:57.234Z,77.10
2018-02-15T12:24:25.443Z,77.70
2018-02-15T12:26:53.898Z,76.60
2018-02-15T12:29:22.329Z,76.40
2018-02-15T12:31:51.556Z,76.40
2018-02-15T12:34:20.005Z,76.40
2018-02-15T12:36:49.201Z,76.60
2018-02-15T12:39:18.437Z,76.00
2018-02-15T12:41:46.863Z,76.00
2018-02-15T12:44:15.291Z,75.80
2018-02-15T12:46:43.728Z,76.20
2018-02-15T12:49:12.949Z,76.40
2018-02-15T12:51:41.418Z,76.40
2018-02-15T12:54:11.310Z,76.10
2018-02-15T12:56:40.218Z,76.10
2018-02-15T12:59:08.673Z,77.20
2018-02-15T13:01:37.117Z,76.20
2018-02-15T13:04:05.572Z,76.60
2018-02-15T13:06:34.014Z,77.00
2018-02-15T13:09:02.460Z,77.00
2018-02-15T13:11:30.906Z,78.20
2018-02-15T13:13:59.377Z,77.30
2018-02-15T13:16:39.412Z,77.20
2018-02-15T13:19:19.864Z,77.00
2018-02-15T13:21:48.309Z,77.00
2018-02-15T13:24:16.750Z,77.00
2018-02-15T13:26:45.222Z,76.60
2018-02-15T13:29:14.430Z,77.30
2018-02-15T13:31:42.945Z,78.00
2018-02-15T13:34:11.750Z,77.20
2018-02-15T13:36:40.676Z,77.60
2018-02-15T13:39:10.073Z,78.00
2018-02-15T13:41:39.416Z,78.30
2018-02-15T13:44:07.866Z,78.20
2018-02-15T13:46:36.302Z,78.20
2018-02-15T13:49:04.740Z,78.80
2018-02-15T13:51:33.197Z,78.50
2018-02-15T13:54:02.402Z,78.80
2018-02-15T13:56:30.836Z,78.80
2018-02-15T13:58:59.297Z,78.90
2018-02-15T14:01:27.740Z,78.80
2018-02-15T14:03:56.173Z,79.20
2018-02-15T14:06:24.632Z,79.20
2018-02-15T14:08:53.082Z,79.30
2018-02-15T14:11:21.522Z,79.70
2018-02-15T14:13:49.788Z,79.80
2018-02-15T14:16:18.212Z,79.70
2018-02-15T14:18:46.667Z,79.40
2018-02-15T14:21:15.870Z,79.80
2018-02-15T14:23:45.071Z,79.60
2018-02-15T14:26:14.276Z,79.90
2018-02-15T14:28:42.715Z,79.90
2018-02-15T14:31:11.983Z,79.50
2018-02-15T14:33:40.417Z,79.40
2018-02-15T14:36:10.171Z,79.30
2018-02-15T14:38:38.681Z,79.20
2018-02-15T14:41:07.200Z,80.30
2018-02-15T14:43:35.714Z,80.10
2018-02-15T14:46:04.235Z,80.80
2018-02-15T14:48:33.531Z,81.10
2018-02-15T14:51:02.941Z,82.40
2018-02-15T14:53:31.468Z,81.40
2018-02-15T14:56:00.653Z,81.80
2018-02-15T14:58:29.198Z,81.30
2018-02-15T15:03:33.309Z,81.50
2018-02-15T15:06:02.601Z,81.30
2018-02-15T15:08:31.151Z,81.10
2018-02-15T15:11:01.063Z,80.00
2018-02-15T15:13:29.849Z,80.40
2018-02-15T15:15:58.414Z,80.50
2018-02-15T15:18:27.827Z,79.50
2018-02-15T15:20:57.186Z,80.10
2018-02-15T15:23:27.509Z,80.50
2018-02-15T15:25:56.801Z,80.20
2018-02-15T15:28:25.168Z,81.00
2018-02-15T15:30:53.676Z,81.10
2018-02-15T15:33:22.188Z,81.30
2018-02-15T15:35:50.698Z,81.80
2018-02-15T15:38:19.253Z,81.90
2018-02-15T15:40:47.796Z,82.20
2018-02-15T15:43:16.476Z,81.90
2018-02-15T15:45:45.748Z,80.90
2018-02-15T15:48:15.045Z,81.20
2018-02-15T15:50:44.363Z,81.00
2018-02-15T15:53:13.317Z,81.00
2018-02-15T15:55:41.855Z,81.40
2018-02-15T15:58:10.390Z,81.10
2018-02-15T16:00:39.702Z,80.50
2018-02-15T16:03:08.226Z,81.10
2018-02-15T16:05:37.542Z,80.10
2018-02-15T16:08:06.054Z,80.70
2018-02-15T16:10:34.586Z,81.20
2018-02-15T16:13:03.745Z,83.00
2018-02-15T16:15:32.694Z,81.30
2018-02-15T16:18:02.184Z,81.10
2018-02-15T16:20:30.680Z,81.50
2018-02-15T16:22:59.217Z,82.00
2018-02-15T16:25:27.829Z,81.10
2018-02-15T16:27:56.395Z,86.50
2018-02-15T16:30:26.148Z,87.90
2018-02-15T16:32:54.356Z,84.60
2018-02-15T16:35:22.968Z,87.40
2018-02-15T16:37:51.490Z,85.80
2018-02-15T16:40:20.044Z,84.50
2018-02-15T16:42:48.485Z,81.70
2018-02-15T16:45:17.690Z,82.40
2018-02-15T16:47:46.132Z,82.50
2018-02-15T16:50:14.551Z,83.50
2018-02-15T16:52:44.003Z,81.50
2018-02-15T16:55:12.431Z,80.60
2018-02-15T16:57:40.874Z,81.80
2018-02-15T17:00:09.319Z,84.30
2018-02-15T17:02:38.733Z,82.60
2018-02-15T17:05:07.188Z,82.10
2018-02-15T17:07:35.630Z,83.20
2018-02-15T17:10:04.515Z,86.80
2018-02-15T17:12:34.699Z,85.70
2018-02-15T17:15:03.535Z,85.80
2018-02-15T17:17:32.749Z,83.90
2018-02-15T17:20:01.439Z,83.90
2018-02-15T17:22:29.875Z,84.30
2018-02-15T17:24:58.316Z,83.70
2018-02-15T17:27:26.750Z,84.80
2018-02-15T18:45:53.926Z,88.40
2018-02-15T18:48:22.359Z,87.60
2018-02-15T18:50:50.789Z,86.30
2018-02-15T18:53:19.271Z,86.40
2018-02-15T18:55:47.705Z,89.80
2018-02-15T18:58:16.195Z,91.20
2018-02-15T19:00:44.672Z,89.40
2018-02-15T19:03:13.169Z,88.00
2018-02-15T19:05:41.748Z,91.40
2018-02-15T19:08:10.179Z,90.10
2018-02-15T19:10:38.621Z,90.40
2018-02-15T19:13:07.050Z,90.80
2018-02-15T19:15:35.505Z,91.90
2018-02-15T19:18:04.706Z,88.40
2018-02-15T19:20:34.894Z,87.20
2018-02-15T19:23:03.337Z,87.20
2018-02-15T19:25:32.232Z,91.20
2018-02-15T19:28:00.741Z,92.40
2018-02-15T19:30:29.295Z,92.40
2018-02-15T19:32:57.802Z,91.00
2018-02-15T19:35:26.244Z,92.00
2018-02-15T19:37:54.682Z,92.20
2018-02-15T19:40:23.906Z,93.50
2018-02-15T19:42:52.323Z,93.70
2018-02-15T19:45:20.763Z,91.60
2018-02-15T19:47:49.186Z,90.70
2018-02-15T19:50:17.638Z,88.70
2018-02-15T19:52:46.085Z,91.90
2018-02-15T19:55:14.517Z,92.20
2018-02-15T19:57:42.953Z,92.50
2018-02-15T20:00:11.054Z,93.40
2018-02-15T20:02:39.499Z,93.90
2018-02-15T20:05:07.946Z,93.20
2018-02-15T20:07:37.411Z,93.60
2018-02-15T20:10:05.843Z,92.70
2018-02-15T20:12:36.076Z,91.50
2018-02-15T20:15:04.535Z,91.60
2018-02-15T20:17:33.716Z,93.10
2018-02-15T20:20:07.675Z,93.10
2018-02-15T20:22:36.606Z,93.50
2018-02-15T20:25:05.039Z,93.40
2018-02-15T20:27:40.028Z,93.30
2018-02-15T20:30:08.470Z,93.20
2018-02-15T20:32:36.935Z,93.50
2018-02-15T20:35:05.384Z,91.30
2018-02-15T20:37:40.026Z,92.40
2018-02-15T20:40:14.094Z,92.40
2018-02-15T20:42:43.409Z,93.30
2018-02-15T20:45:12.614Z,92.50
2018-02-15T20:47:41.813Z,92.90
2018-02-15T20:50:15.889Z,92.80
2018-02-15T20:55:46.952Z,93.90
2018-02-15T20:58:15.406Z,92.70
2018-02-15T21:00:43.852Z,92.80
2018-02-15T21:03:12.324Z,93.80
2018-02-15T21:05:40.744Z,94.50
2018-02-15T21:08:09.174Z,93.70
2018-02-15T21:10:38.378Z,94.20
2018-02-15T21:13:06.468Z,94.20
2018-02-15T21:15:35.896Z,94.80
2018-02-15T21:18:03.980Z,95.10
2018-02-15T21:20:32.554Z,95.30
2018-02-15T21:23:00.980Z,94.50
2018-02-15T21:25:29.613Z,94.40
2018-02-15T21:27:58.060Z,94.70
2018-02-15T21:30:26.479Z,94.50
2018-02-15T21:32:54.915Z,95.30
2018-02-15T21:35:23.352Z,95.40
2018-02-15T21:37:52.567Z,93.50
2018-02-15T21:40:21.000Z,93.40
2018-02-15T21:42:49.455Z,92.10
2018-02-15T21:45:17.886Z,92.50
2018-02-15T21:47:47.085Z,92.00
2018-02-15T21:50:16.283Z,92.40
2018-02-15T21:52:45.468Z,93.00
2018-02-15T21:55:13.905Z,93.00
2018-02-15T21:57:42.351Z,94.50
2018-02-15T22:00:10.798Z,94.90
2018-02-15T22:02:39.267Z,95.20
2018-02-15T22:05:07.707Z,95.60
2018-02-15T22:07:36.136Z,95.60
2018-02-15T22:10:05.342Z,95.70
2018-02-15T22:12:35.537Z,96.00
2018-02-15T22:15:04.104Z,96.00
2018-02-15T22:17:32.564Z,95.90
2018-02-15T22:20:00.969Z,95.50
2018-02-15T22:22:29.380Z,95.30
2018-02-15T22:24:58.531Z,95.20
2018-02-15T22:27:26.952Z,95.20
2018-02-15T22:29:56.116Z,94.30
2018-02-15T22:32:24.512Z,94.30
2018-02-15T22:34:52.922Z,94.20
2018-02-15T22:37:21.374Z,93.80
2018-02-15T22:39:49.767Z,94.90
2018-02-15T22:42:18.746Z,95.10
2018-02-15T22:44:47.938Z,95.40
2018-02-15T22:47:16.334Z,95.40
2018-02-15T22:49:45.480Z,94.90
2018-02-15T22:52:13.889Z,94.90
2018-02-15T22:54:42.300Z,92.80
2018-02-15T22:57:10.931Z,93.30
2018-02-15T22:59:39.334Z,93.80
2018-02-15T23:02:08.555Z,92.70
2018-02-15T23:04:36.961Z,92.80
2018-02-15T23:07:06.336Z,93.60
2018-02-15T23:09:35.791Z,92.80
2018-02-15T23:12:04.201Z,94.00
2018-02-15T23:14:34.100Z,93.30
2018-02-15T23:17:02.767Z,93.30
2018-02-15T23:19:31.177Z,93.10
2018-02-15T23:22:00.328Z,93.20
2018-02-15T23:24:29.502Z,94.20
2018-02-15T23:26:57.885Z,94.20
2018-02-15T23:29:26.258Z,93.40
2018-02-15T23:31:54.672Z,91.70
2018-02-15T23:34:23.046Z,91.40
2018-02-15T23:36:51.449Z,92.20
2018-02-15T23:39:20.584Z,93.80
2018-02-15T23:41:48.974Z,93.90
2018-02-15T23:44:17.365Z,92.90
2018-02-15T23:46:45.775Z,92.50
2018-02-15T23:49:14.927Z,92.30
2018-02-15T23:51:43.337Z,92.30
2018-02-15T23:54:12.527Z,92.40
2018-02-15T23:56:41.014Z,92.40
2018-02-15T23:59:10.186Z,91.50
